Terminal Aerodrome Forecast
Issued by NWS Twin Cities, MN

Home | Current Version | Previous Version | Text Only | Print | Product List | Glossary Off
Versions: 1 2 3 4 5 6 7 8 9 10 11 12 13 14 15 16 17 18 19 20 21

423
FTUS43 KMPX 210520
TAFSTC
TAF
KSTC 210520Z 2106/2206 16007KT P6SM SCT025 BKN035
     FM211800 21006KT P6SM SCT250
     FM212100 33006KT P6SM BKN250=

USA.gov is the U.S. government's official web portal to all federal, state and local government web resources and services.